Time;durP1;ratioP1;P1;durP2;ratioP2;P2;SDS_P1;SDS_P2;PMS_P1;PMS_P2;Temp;Humidity;BMP_temperature;BMP_pressure;BME280_temperature;BME280_humidity;BME280_pressure;Samples;Min_cycle;Max_cycle;Signal;HPM_P1;HPM_P2
2023/03/09 00:01:49;;;;;;;0.00;0.00;;;10.30;99.90;;;;;;4995583;28;20048;-78
2023/03/09 00:04:19;;;;;;;0.00;0.00;;;10.20;99.90;;;;;;4983116;28;20037;-77
2023/03/09 00:06:45;;;;;;;0.08;0.08;;;10.20;99.90;;;;;;4985973;28;20092;-78
2023/03/09 00:09:13;;;;;;;0.00;0.00;;;10.10;99.90;;;;;;4998382;28;20025;-78
2023/03/09 00:11:44;;;;;;;0.00;0.00;;;10.10;99.90;;;;;;4995750;28;20422;-77
2023/03/09 00:14:17;;;;;;;0.00;0.00;;;10.10;99.90;;;;;;5012463;28;20026;-77
2023/03/09 00:16:47;;;;;;;0.00;0.00;;;10.00;99.90;;;;;;4990662;28;20608;-77
2023/03/09 00:19:26;;;;;;;0.00;0.00;;;9.90;99.90;;;;;;4984718;28;20042;-78
2023/03/09 00:21:54;;;;;;;0.00;0.00;;;9.90;99.90;;;;;;4986274;28;20112;-78
2023/03/09 00:24:28;;;;;;;0.00;0.00;;;10.00;99.90;;;;;;5004692;28;20030;-77
2023/03/09 00:26:59;;;;;;;0.00;0.00;;;10.00;99.90;;;;;;4988219;28;20025;-78
2023/03/09 00:29:26;;;;;;;0.00;0.00;;;10.10;99.90;;;;;;4994323;28;20030;-77
2023/03/09 00:32:00;;;;;;;0.00;0.00;;;10.10;99.90;;;;;;5003677;28;20072;-77
2023/03/09 00:34:33;;;;;;;0.00;0.00;;;10.00;99.90;;;;;;5005874;28;20014;-78
2023/03/09 00:37:01;;;;;;;0.00;0.00;;;10.00;99.90;;;;;;4985784;28;20522;-77
2023/03/09 00:39:34;;;;;;;0.80;0.20;;;10.00;99.90;;;;;;5008675;28;20079;-78
2023/03/09 00:42:00;;;;;;;0.17;0.15;;;9.90;99.90;;;;;;4986116;28;20021;-77
2023/03/09 00:44:28;;;;;;;0.00;0.00;;;9.80;99.90;;;;;;4992820;28;20056;-77
2023/03/09 00:46:56;;;;;;;0.00;0.00;;;9.60;99.90;;;;;;4999783;28;20030;-78
2023/03/09 00:49:22;;;;;;;0.05;0.05;;;9.60;99.90;;;;;;4998278;28;20117;-77
2023/03/09 00:51:49;;;;;;;0.00;0.00;;;9.50;99.90;;;;;;4990877;28;20112;-77
2023/03/09 00:54:16;;;;;;;0.00;0.00;;;9.40;99.90;;;;;;4998240;28;20076;-78
2023/03/09 00:56:43;;;;;;;;;;;9.30;99.90;;;;;;4986732;28;20025;-77
2023/03/09 00:59:11;;;;;;;0.00;0.00;;;9.20;99.90;;;;;;4990269;28;19909;-77
2023/03/09 01:01:37;;;;;;;0.00;0.00;;;9.10;99.90;;;;;;5000142;28;20030;-77
2023/03/09 01:04:13;;;;;;;0.00;0.00;;;9.00;99.90;;;;;;4984659;28;20088;-77
2023/03/09 01:06:40;;;;;;;0.00;0.00;;;9.10;99.90;;;;;;4987427;28;20271;-77
2023/03/09 01:09:09;;;;;;;0.00;0.00;;;9.20;99.90;;;;;;4990130;28;20030;-78
2023/03/09 01:11:41;;;;;;;0.00;0.00;;;9.10;99.90;;;;;;4983368;28;20742;-78
2023/03/09 01:14:08;;;;;;;0.00;0.00;;;9.10;99.90;;;;;;4987168;28;20029;-78
2023/03/09 01:16:33;;;;;;;0.00;0.00;;;9.00;99.90;;;;;;4981584;28;20523;-78
2023/03/09 01:18:59;;;;;;;0.00;0.00;;;8.90;99.90;;;;;;5008240;28;20084;-77
2023/03/09 01:21:38;;;;;;;0.30;0.30;;;8.90;99.90;;;;;;4982594;28;20038;-77
2023/03/09 01:24:15;;;;;;;0.00;0.00;;;8.90;99.90;;;;;;4992750;28;20109;-78
2023/03/09 01:26:45;;;;;;;0.00;0.00;;;9.00;99.90;;;;;;4983064;28;20398;-78
2023/03/09 01:29:12;;;;;;;0.17;0.17;;;8.90;99.90;;;;;;5005284;28;20386;-78
2023/03/09 01:31:40;;;;;;;0.00;0.00;;;8.90;99.90;;;;;;5008785;28;20032;-77
2023/03/09 01:34:06;;;;;;;0.00;0.00;;;8.90;99.90;;;;;;4984338;28;20080;-78
2023/03/09 01:36:34;;;;;;;0.00;0.00;;;8.80;99.90;;;;;;4992650;28;20084;-77
2023/03/09 01:38:59;;;;;;;0.00;0.00;;;8.70;99.90;;;;;;5009835;28;20181;-78
2023/03/09 01:41:26;;;;;;;0.00;0.00;;;8.60;99.90;;;;;;5012051;28;20096;-77
2023/03/09 01:43:58;;;;;;;;;;;8.60;99.90;;;;;;4986716;28;20036;-78
2023/03/09 01:46:48;;;;;;;0.00;0.00;;;8.60;99.90;;;;;;5003147;28;20882;-77
2023/03/09 01:49:29;;;;;;;0.00;0.00;;;8.60;99.90;;;;;;4983051;28;20349;-77
2023/03/09 01:52:19;;;;;;;0.00;0.00;;;8.60;99.90;;;;;;4992525;28;20041;-77
2023/03/09 01:55:02;;;;;;;0.00;0.00;;;8.50;99.90;;;;;;5014090;28;20030;-78
2023/03/09 01:57:34;;;;;;;0.00;0.00;;;8.60;99.90;;;;;;5009596;28;20064;-78
2023/03/09 02:00:08;;;;;;;0.00;0.00;;;8.60;99.90;;;;;;4998095;28;20386;-78
2023/03/09 02:02:38;;;;;;;0.00;0.00;;;8.60;99.90;;;;;;4997450;28;20523;-78
2023/03/09 02:05:09;;;;;;;0.00;0.00;;;8.50;99.90;;;;;;4997213;28;20021;-78
2023/03/09 02:07:39;;;;;;;0.00;0.00;;;8.50;99.90;;;;;;4990924;28;20502;-79
2023/03/09 02:10:20;;;;;;;0.00;0.00;;;8.40;99.90;;;;;;5006369;28;20076;-79
2023/03/09 02:12:53;;;;;;;0.00;0.00;;;8.40;99.90;;;;;;4990079;28;20028;-79
2023/03/09 02:15:20;;;;;;;0.00;0.00;;;8.40;99.90;;;;;;5015235;28;21021;-78
2023/03/09 02:17:58;;;;;;;0.00;0.00;;;8.40;99.90;;;;;;5013829;28;20025;-78
2023/03/09 02:20:38;;;;;;;0.00;0.00;;;8.40;99.90;;;;;;4991766;28;20041;-78
2023/03/09 02:23:13;;;;;;;0.00;0.00;;;8.30;99.90;;;;;;4992505;28;20103;-78
2023/03/09 02:25:54;;;;;;;0.00;0.00;;;8.30;99.90;;;;;;5007388;28;20072;-78
2023/03/09 02:28:20;;;;;;;0.00;0.00;;;8.30;99.90;;;;;;5016205;28;21521;-78
2023/03/09 02:30:48;;;;;;;0.00;0.00;;;8.30;99.90;;;;;;4989863;28;20034;-78
2023/03/09 02:33:26;;;;;;;0.00;0.00;;;8.30;99.90;;;;;;5006693;28;20030;-78
2023/03/09 02:35:59;;;;;;;0.00;0.00;;;8.40;99.90;;;;;;5005602;28;20105;-78
2023/03/09 02:38:26;;;;;;;0.00;0.00;;;8.40;99.90;;;;;;5001709;28;20113;-78
2023/03/09 02:41:02;;;;;;;0.00;0.00;;;8.40;99.90;;;;;;5007492;28;20104;-78
2023/03/09 02:43:37;;;;;;;0.00;0.00;;;8.40;99.90;;;;;;5007373;28;20017;-79
2023/03/09 02:46:04;;;;;;;0.22;0.10;;;8.50;99.90;;;;;;5008278;28;20030;-79
2023/03/09 02:48:33;;;;;;;0.00;0.00;;;8.50;99.90;;;;;;4988813;28;20022;-77
2023/03/09 02:50:59;;;;;;;0.00;0.00;;;8.40;99.90;;;;;;4991497;28;20028;-79
2023/03/09 02:53:25;;;;;;;0.00;0.00;;;8.30;99.90;;;;;;4993651;28;20026;-78
2023/03/09 02:55:52;;;;;;;0.00;0.00;;;8.30;99.90;;;;;;5002820;28;20234;-78
2023/03/09 02:58:19;;;;;;;0.00;0.00;;;8.20;99.90;;;;;;5013902;28;20022;-78
2023/03/09 03:00:46;;;;;;;;;;;8.10;99.90;;;;;;4993990;28;21258;-78
2023/03/09 03:03:11;;;;;;;0.00;0.00;;;8.10;99.90;;;;;;5009956;28;19905;-78
2023/03/09 03:05:37;;;;;;;0.00;0.00;;;8.00;99.90;;;;;;5002560;28;20028;-78
2023/03/09 03:08:04;;;;;;;0.00;0.00;;;8.00;99.90;;;;;;4999436;28;20065;-79
2023/03/09 03:10:29;;;;;;;;;;;7.90;99.90;;;;;;4993366;28;20107;-78
2023/03/09 03:12:57;;;;;;;0.00;0.00;;;7.90;99.90;;;;;;5006392;28;20358;-78
2023/03/09 03:15:24;;;;;;;0.00;0.00;;;7.90;99.90;;;;;;4994917;28;20083;-78
2023/03/09 03:17:49;;;;;;;0.00;0.00;;;7.90;99.90;;;;;;4996033;28;20250;-78
2023/03/09 03:20:15;;;;;;;0.00;0.00;;;8.00;99.90;;;;;;4991982;28;20597;-78
2023/03/09 03:22:55;;;;;;;0.00;0.00;;;7.90;99.90;;;;;;4986564;28;20034;-78
2023/03/09 03:25:25;;;;;;;0.00;0.00;;;7.90;99.90;;;;;;4992846;28;21479;-78
2023/03/09 03:27:54;;;;;;;0.00;0.00;;;7.90;99.90;;;;;;5013321;28;20108;-78
2023/03/09 03:30:21;;;;;;;0.10;0.10;;;7.90;99.90;;;;;;5006949;28;21363;-79
2023/03/09 03:32:54;;;;;;;0.00;0.00;;;8.00;99.90;;;;;;4992039;28;20577;-78
2023/03/09 03:35:20;;;;;;;0.60;0.15;;;8.00;99.90;;;;;;5002801;28;20105;-78
2023/03/09 03:37:49;;;;;;;0.00;0.00;;;7.90;99.90;;;;;;4992171;28;20766;-79
2023/03/09 03:40:22;;;;;;;0.00;0.00;;;7.90;99.90;;;;;;5010085;28;20364;-78
2023/03/09 03:42:48;;;;;;;0.00;0.00;;;7.80;99.90;;;;;;4987543;28;20083;-78
2023/03/09 03:45:25;;;;;;;0.00;0.00;;;7.80;99.90;;;;;;5010344;28;20038;-78
2023/03/09 03:47:52;;;;;;;0.00;0.00;;;7.70;99.90;;;;;;4993122;28;20032;-79
2023/03/09 03:50:17;;;;;;;;;;;7.70;99.90;;;;;;5009280;28;20038;-79
2023/03/09 03:52:43;;;;;;;0.00;0.00;;;7.70;99.90;;;;;;4989924;28;19967;-78
2023/03/09 03:55:09;;;;;;;0.00;0.00;;;7.70;99.90;;;;;;5015359;28;20025;-78
2023/03/09 03:57:37;;;;;;;0.00;0.00;;;7.70;99.90;;;;;;4986711;28;20478;-78
2023/03/09 04:00:13;;;;;;;0.00;0.00;;;7.70;99.90;;;;;;4988245;28;20026;-78
2023/03/09 04:02:46;;;;;;;0.00;0.00;;;7.70;99.90;;;;;;5005989;28;20053;-79
2023/03/09 04:05:13;;;;;;;0.00;0.00;;;7.70;99.90;;;;;;5007288;28;20264;-78
2023/03/09 04:07:38;;;;;;;0.00;0.00;;;7.70;99.90;;;;;;5007381;28;20028;-78
2023/03/09 04:10:06;;;;;;;0.00;0.00;;;7.70;99.90;;;;;;5008048;28;20693;-78
2023/03/09 04:12:40;;;;;;;0.00;0.00;;;7.70;99.90;;;;;;4986549;28;20419;-78
2023/03/09 04:15:07;;;;;;;0.00;0.00;;;7.70;99.90;;;;;;4992506;28;20056;-78
2023/03/09 04:17:32;;;;;;;0.00;0.00;;;7.70;99.90;;;;;;4989252;28;20032;-78
2023/03/09 04:20:02;;;;;;;0.00;0.00;;;7.60;99.90;;;;;;5005759;28;20453;-78
2023/03/09 04:22:30;;;;;;;0.00;0.00;;;7.60;99.90;;;;;;4988585;28;20029;-78
2023/03/09 04:25:02;;;;;;;0.00;0.00;;;7.50;99.90;;;;;;4986956;28;20112;-78
2023/03/09 04:27:28;;;;;;;0.00;0.00;;;7.40;99.90;;;;;;4986194;28;20056;-79
2023/03/09 04:29:54;;;;;;;0.00;0.00;;;7.30;99.90;;;;;;4991296;28;20299;-78
2023/03/09 04:32:20;;;;;;;0.00;0.00;;;7.30;99.90;;;;;;5014289;28;20510;-78
2023/03/09 04:34:54;;;;;;;;;;;7.30;99.90;;;;;;4992033;28;20033;-78
2023/03/09 04:37:23;;;;;;;0.00;0.00;;;7.30;99.90;;;;;;4987117;28;19920;-79
2023/03/09 04:39:50;;;;;;;0.00;0.00;;;7.20;99.90;;;;;;4995285;28;20030;-79
2023/03/09 04:42:17;;;;;;;0.00;0.00;;;7.10;99.90;;;;;;5007141;28;20033;-78
2023/03/09 04:44:43;;;;;;;;;;;7.10;99.90;;;;;;4995070;28;20104;-78
2023/03/09 04:47:12;;;;;;;0.00;0.00;;;7.10;99.90;;;;;;4983690;28;20047;-78
2023/03/09 04:49:41;;;;;;;0.00;0.00;;;7.00;99.90;;;;;;4991763;28;20021;-79
2023/03/09 04:52:08;;;;;;;0.00;0.00;;;7.10;99.90;;;;;;5003000;28;20022;-78
2023/03/09 04:54:35;;;;;;;0.00;0.00;;;7.20;99.90;;;;;;5005395;28;20022;-78
2023/03/09 04:57:00;;;;;;;;;;;7.20;99.90;;;;;;4988847;28;20025;-78
2023/03/09 04:59:28;;;;;;;0.00;0.00;;;7.20;99.90;;;;;;4991373;28;20367;-78
2023/03/09 05:01:53;;;;;;;0.00;0.00;;;7.20;99.90;;;;;;5005085;28;20026;-78
2023/03/09 05:04:24;;;;;;;0.00;0.00;;;7.30;99.90;;;;;;4990135;28;20013;-78
2023/03/09 05:06:50;;;;;;;0.00;0.00;;;7.20;99.90;;;;;;4989317;28;20084;-78
2023/03/09 05:09:17;;;;;;;0.00;0.00;;;7.20;99.90;;;;;;4990716;28;20034;-78
2023/03/09 05:11:43;;;;;;;;;;;7.20;99.90;;;;;;4985828;28;20040;-78
2023/03/09 05:14:08;;;;;;;0.00;0.00;;;7.10;99.90;;;;;;4984921;28;19913;-78
2023/03/09 05:16:34;;;;;;;0.00;0.00;;;7.10;99.90;;;;;;4997657;28;20025;-79
2023/03/09 05:19:00;;;;;;;0.00;0.00;;;7.00;99.90;;;;;;5003516;28;20083;-79
2023/03/09 05:21:33;;;;;;;0.00;0.00;;;6.90;99.90;;;;;;5006705;28;20032;-78
2023/03/09 05:24:11;;;;;;;0.00;0.00;;;6.90;99.90;;;;;;5008234;28;20025;-77
2023/03/09 05:26:39;;;;;;;0.00;0.00;;;6.90;99.90;;;;;;5007195;28;20029;-78
2023/03/09 05:29:05;;;;;;;0.00;0.00;;;6.90;99.90;;;;;;4987439;28;20069;-78
2023/03/09 05:31:33;;;;;;;;;;;6.90;99.90;;;;;;4988442;28;20028;-77
2023/03/09 05:33:59;;;;;;;0.00;0.00;;;6.90;99.90;;;;;;4987252;28;20003;-78
2023/03/09 05:36:26;;;;;;;0.00;0.00;;;7.00;99.90;;;;;;4991504;28;20124;-78
2023/03/09 05:38:54;;;;;;;0.00;0.00;;;7.10;99.90;;;;;;4993628;28;20022;-78
2023/03/09 05:41:19;;;;;;;0.00;0.00;;;7.30;99.90;;;;;;4979770;28;20390;-78
2023/03/09 05:43:46;;;;;;;0.00;0.00;;;7.40;99.90;;;;;;4991742;28;20026;-78
2023/03/09 05:46:14;;;;;;;;;;;7.70;99.90;;;;;;5006697;28;20291;-78
2023/03/09 05:48:49;;;;;;;;;;;8.00;99.90;;;;;;5011282;28;19913;-78
2023/03/09 05:51:21;;;;;;;0.00;0.00;;;8.40;99.90;;;;;;4989381;28;19910;-78
2023/03/09 05:53:49;;;;;;;0.00;0.00;;;9.10;99.90;;;;;;5004186;28;20026;-77
2023/03/09 05:56:25;;;;;;;0.00;0.00;;;9.70;99.90;;;;;;5007937;28;20056;-77
2023/03/09 05:58:56;;;;;;;0.00;0.00;;;10.10;99.90;;;;;;4991724;28;20022;-78
2023/03/09 06:01:27;;;;;;;0.00;0.00;;;10.30;99.90;;;;;;5008470;28;20026;-78
2023/03/09 06:03:53;;;;;;;0.00;0.00;;;10.30;99.90;;;;;;4994528;28;20043;-79
2023/03/09 06:06:20;;;;;;;0.00;0.00;;;10.40;99.90;;;;;;4984937;28;20029;-76
2023/03/09 06:08:47;;;;;;;0.00;0.00;;;10.60;99.90;;;;;;5006012;28;20048;-76
2023/03/09 06:11:14;;;;;;;0.00;0.00;;;10.80;99.90;;;;;;4998972;28;20136;-75
2023/03/09 06:13:40;;;;;;;0.00;0.00;;;10.90;99.90;;;;;;4995472;28;20691;-76
2023/03/09 06:16:08;;;;;;;0.00;0.00;;;11.10;99.90;;;;;;5002486;28;20097;-76
2023/03/09 06:18:34;;;;;;;0.00;0.00;;;11.60;99.90;;;;;;4990440;28;20079;-75
2023/03/09 06:21:05;;;;;;;;;;;12.10;99.90;;;;;;5011030;28;20025;-75
2023/03/09 06:23:32;;;;;;;0.00;0.00;;;12.80;99.90;;;;;;5004418;28;20007;-76
2023/03/09 06:25:58;;;;;;;0.00;0.00;;;14.60;99.90;;;;;;4991180;28;20026;-74
2023/03/09 06:28:24;;;;;;;0.00;0.00;;;16.50;98.30;;;;;;4991218;28;20084;-74
2023/03/09 06:30:50;;;;;;;0.00;0.00;;;18.20;93.40;;;;;;4992566;28;20030;-74
2023/03/09 06:33:17;;;;;;;0.00;0.00;;;19.30;85.20;;;;;;5002735;28;20033;-74
2023/03/09 06:35:42;;;;;;;0.00;0.00;;;20.00;77.80;;;;;;4989250;28;20091;-72
2023/03/09 06:38:09;;;;;;;0.00;0.00;;;20.30;75.00;;;;;;5005418;28;20472;-77
2023/03/09 06:40:36;;;;;;;0.00;0.00;;;20.00;72.10;;;;;;4985327;28;20683;-76
2023/03/09 06:43:03;;;;;;;0.00;0.00;;;19.70;72.40;;;;;;5007017;28;20529;-77
2023/03/09 06:45:34;;;;;;;0.00;0.00;;;18.90;73.70;;;;;;5007806;28;20026;-77
2023/03/09 06:48:04;;;;;;;0.00;0.00;;;18.20;76.30;;;;;;5006969;28;20091;-76
2023/03/09 06:50:31;;;;;;;0.00;0.00;;;17.10;80.30;;;;;;5009645;28;20052;-78
2023/03/09 06:53:03;;;;;;;0.00;0.00;;;16.20;86.30;;;;;;5009623;28;20022;-77
2023/03/09 06:55:36;;;;;;;0.00;0.00;;;15.40;91.60;;;;;;4998214;28;20035;-78
2023/03/09 06:58:03;;;;;;;0.00;0.00;;;14.80;94.90;;;;;;4997949;28;20113;-78
2023/03/09 07:00:40;;;;;;;0.00;0.00;;;14.30;97.60;;;;;;4995538;28;20108;-78
2023/03/09 07:03:13;;;;;;;0.00;0.00;;;14.10;99.50;;;;;;4994988;28;20049;-77
2023/03/09 07:05:39;;;;;;;0.00;0.00;;;14.00;99.90;;;;;;4994277;28;20483;-78
2023/03/09 07:08:13;;;;;;;0.00;0.00;;;14.00;99.90;;;;;;4985529;28;20049;-77
2023/03/09 07:10:41;;;;;;;0.00;0.00;;;15.00;99.20;;;;;;4986457;28;20025;-78
2023/03/09 07:13:13;;;;;;;0.00;0.00;;;16.60;96.70;;;;;;5003800;28;20120;-77
2023/03/09 07:15:40;;;;;;;0.00;0.00;;;17.00;93.40;;;;;;5005699;28;20026;-77
2023/03/09 07:18:07;;;;;;;0.00;0.00;;;16.40;93.80;;;;;;5009903;28;20029;-77
2023/03/09 07:20:34;;;;;;;0.00;0.00;;;17.10;94.20;;;;;;4994570;28;20479;-78
2023/03/09 07:23:00;;;;;;;0.00;0.00;;;19.00;89.30;;;;;;4990106;28;20487;-78
2023/03/09 07:25:34;;;;;;;0.00;0.00;;;20.50;79.00;;;;;;4992018;28;20137;-78
2023/03/09 07:28:05;;;;;;;0.00;0.00;;;21.10;73.50;;;;;;4989790;28;20034;-77
2023/03/09 07:30:31;;;;;;;0.00;0.00;;;19.40;75.50;;;;;;5007748;28;20030;-78
2023/03/09 07:32:58;;;;;;;0.00;0.00;;;18.20;80.60;;;;;;5008856;28;21001;-78
2023/03/09 07:35:25;;;;;;;0.00;0.00;;;17.40;85.30;;;;;;5011121;28;20031;-78
2023/03/09 07:37:51;;;;;;;0.00;0.00;;;17.30;87.90;;;;;;4991471;28;20083;-77
2023/03/09 07:40:18;;;;;;;0.00;0.00;;;17.10;89.40;;;;;;4992164;28;20061;-77
2023/03/09 07:42:49;;;;;;;0.00;0.00;;;16.70;90.80;;;;;;4991434;28;20028;-77
2023/03/09 07:45:21;;;;;;;0.00;0.00;;;16.50;92.10;;;;;;4995532;28;20021;-78
2023/03/09 07:47:53;;;;;;;0.00;0.00;;;16.20;93.30;;;;;;5005464;28;20026;-77
2023/03/09 07:50:19;;;;;;;0.00;0.00;;;17.10;92.80;;;;;;5003513;28;20904;-78
2023/03/09 07:52:53;;;;;;;0.00;0.00;;;18.60;90.40;;;;;;5005921;28;20026;-78
2023/03/09 07:55:23;;;;;;;0.00;0.00;;;21.50;78.80;;;;;;4989176;28;20865;-78
2023/03/09 07:57:50;;;;;;;0.00;0.00;;;24.10;67.40;;;;;;4986476;28;20471;-76
2023/03/09 08:00:22;;;;;;;0.00;0.00;;;25.60;61.00;;;;;;4990659;28;20026;-76
2023/03/09 08:02:51;;;;;;;0.00;0.00;;;27.10;55.10;;;;;;4989472;28;20064;-75
2023/03/09 08:05:24;;;;;;;0.00;0.00;;;26.00;53.30;;;;;;4985668;28;20026;-78
2023/03/09 08:07:50;;;;;;;0.00;0.00;;;24.10;55.50;;;;;;4987560;28;20042;-78
2023/03/09 08:10:19;;;;;;;0.00;0.00;;;22.10;58.00;;;;;;5009370;28;20072;-78
2023/03/09 08:12:50;;;;;;;0.00;0.00;;;19.80;62.60;;;;;;4985960;28;20383;-77
2023/03/09 08:15:20;;;;;;;0.00;0.00;;;18.90;66.50;;;;;;4994471;28;20034;-77
2023/03/09 08:17:50;;;;;;;0.00;0.00;;;18.50;69.10;;;;;;4991233;28;20029;-78
2023/03/09 08:20:15;;;;;;;0.00;0.00;;;19.10;68.80;;;;;;4986911;28;20125;-78
2023/03/09 08:22:44;;;;;;;0.00;0.00;;;19.90;67.20;;;;;;4987876;28;20109;-78
2023/03/09 08:25:13;;;;;;;0.00;0.00;;;21.00;65.40;;;;;;4997359;28;20559;-77
2023/03/09 08:27:43;;;;;;;0.00;0.00;;;23.10;61.40;;;;;;4993748;28;20029;-78
2023/03/09 08:30:10;;;;;;;0.00;0.00;;;23.70;58.50;;;;;;4993448;28;20010;-77
2023/03/09 08:32:39;;;;;;;0.00;0.00;;;24.90;56.60;;;;;;4985214;28;20018;-76
2023/03/09 08:35:08;;;;;;;0.00;0.00;;;23.90;55.50;;;;;;5007357;28;20506;-75
2023/03/09 08:37:36;;;;;;;0.00;0.00;;;22.00;57.50;;;;;;4987768;28;20032;-78
2023/03/09 08:40:03;;;;;;;0.00;0.00;;;20.70;61.20;;;;;;4990661;28;20049;-77
2023/03/09 08:42:36;;;;;;;0.00;0.00;;;19.60;64.20;;;;;;5013401;28;20148;-78
2023/03/09 08:45:04;;;;;;;0.00;0.00;;;19.00;65.70;;;;;;4985310;28;20016;-77
2023/03/09 08:47:30;;;;;;;0.00;0.00;;;19.20;66.50;;;;;;4999534;28;20017;-77
2023/03/09 08:49:57;;;;;;;0.00;0.00;;;20.30;65.20;;;;;;5003814;28;20041;-77
2023/03/09 08:52:24;;;;;;;0.00;0.00;;;20.90;63.30;;;;;;4989472;28;20494;-78
2023/03/09 08:54:59;;;;;;;0.00;0.00;;;20.30;63.50;;;;;;4990031;28;20614;-77
2023/03/09 08:57:25;;;;;;;0.00;0.00;;;19.40;65.40;;;;;;4983710;28;20029;-77
2023/03/09 08:59:52;;;;;;;0.00;0.00;;;18.40;67.70;;;;;;4993468;28;20156;-78
2023/03/09 09:02:23;;;;;;;0.00;0.00;;;17.90;69.10;;;;;;5009499;28;20034;-76
2023/03/09 09:04:48;;;;;;;0.00;0.00;;;17.50;71.30;;;;;;4989858;28;20076;-78
2023/03/09 09:07:15;;;;;;;0.00;0.00;;;17.10;73.50;;;;;;5012586;28;20029;-77
2023/03/09 09:09:41;;;;;;;;;;;16.90;74.70;;;;;;4987919;28;20033;-78
2023/03/09 09:12:09;;;;;;;0.00;0.00;;;16.80;76.40;;;;;;5001563;28;19996;-77
2023/03/09 09:14:40;;;;;;;0.00;0.00;;;18.00;75.20;;;;;;5008967;28;20086;-77
2023/03/09 09:17:11;;;;;;;0.00;0.00;;;19.40;69.80;;;;;;4990630;28;20464;-77
2023/03/09 09:19:38;;;;;;;0.00;0.00;;;19.60;69.00;;;;;;4992262;28;20716;-77
2023/03/09 09:22:05;;;;;;;0.00;0.00;;;20.20;67.60;;;;;;5012525;28;20025;-78
2023/03/09 09:24:34;;;;;;;0.00;0.00;;;20.30;66.80;;;;;;5007537;28;20048;-77
2023/03/09 09:27:02;;;;;;;0.00;0.00;;;21.40;65.60;;;;;;5004987;28;20446;-77
2023/03/09 09:29:41;;;;;;;0.00;0.00;;;21.20;64.30;;;;;;5004404;28;20422;-77
2023/03/09 09:32:14;;;;;;;0.00;0.00;;;22.50;62.60;;;;;;4982809;28;20053;-78
2023/03/09 09:34:48;;;;;;;0.00;0.00;;;24.30;58.90;;;;;;5007057;28;20037;-76
2023/03/09 09:37:18;;;;;;;0.00;0.00;;;24.60;57.90;;;;;;4994565;28;20415;-76
2023/03/09 09:39:45;;;;;;;0.00;0.00;;;26.80;54.60;;;;;;4988283;28;20018;-77
2023/03/09 09:42:31;;;;;;;0.00;0.00;;;28.80;51.70;;;;;;5008538;28;20022;-77
2023/03/09 09:44:59;;;;;;;0.00;0.00;;;29.70;49.10;;;;;;5011126;28;20028;-77
2023/03/09 09:47:29;;;;;;;0.00;0.00;;;28.90;48.90;;;;;;5000065;28;20034;-76
2023/03/09 09:50:04;;;;;;;0.00;0.00;;;27.40;49.60;;;;;;4991394;28;20021;-77
2023/03/09 09:53:07;;;;;;;0.00;0.00;;;26.00;51.30;;;;;;4993779;28;20025;-76
2023/03/09 09:55:41;;;;;;;0.00;0.00;;;27.30;51.60;;;;;;5006375;28;20056;-77
2023/03/09 09:58:12;;;;;;;0.00;0.00;;;28.20;50.00;;;;;;5001517;28;20079;-77
2023/03/09 10:00:49;;;;;;;0.00;0.00;;;28.20;49.30;;;;;;4991653;28;20022;-77
2023/03/09 10:03:23;;;;;;;0.00;0.00;;;26.90;51.40;;;;;;5002323;28;20671;-77
2023/03/09 10:06:16;;;;;;;0.00;0.00;;;27.90;49.90;;;;;;4992564;28;20402;-78
2023/03/09 10:09:03;;;;;;;0.00;0.00;;;28.30;49.40;;;;;;5002199;28;20021;-77
2023/03/09 10:11:46;;;;;;;0.00;0.00;;;27.80;49.10;;;;;;4991608;28;20021;-76
2023/03/09 10:14:37;;;;;;;0.00;0.00;;;27.00;50.00;;;;;;5007040;28;20119;-76
2023/03/09 10:17:12;;;;;;;0.00;0.00;;;29.70;48.60;;;;;;4990920;28;20022;-76
2023/03/09 10:19:40;;;;;;;0.00;0.00;;;29.00;48.20;;;;;;5007604;28;20116;-76
2023/03/09 10:22:24;;;;;;;0.00;0.00;;;29.50;48.20;;;;;;5008989;28;20058;-77
2023/03/09 10:24:52;;;;;;;0.00;0.00;;;28.80;48.30;;;;;;5007343;28;20664;-76
2023/03/09 10:27:26;;;;;;;0.00;0.00;;;29.30;48.00;;;;;;5013242;28;20042;-77
2023/03/09 10:30:29;;;;;;;0.00;0.00;;;30.00;47.30;;;;;;4993235;28;20074;-76
2023/03/09 10:33:04;;;;;;;0.00;0.00;;;27.20;48.00;;;;;;5012506;28;20853;-75
2023/03/09 10:35:42;;;;;;;0.00;0.00;;;24.40;51.20;;;;;;5006811;28;20128;-76
2023/03/09 10:38:16;;;;;;;0.00;0.00;;;22.80;54.60;;;;;;5009733;28;20124;-76
2023/03/09 10:40:46;;;;;;;0.00;0.00;;;21.80;57.10;;;;;;4990576;28;20021;-75
2023/03/09 10:43:25;;;;;;;0.00;0.00;;;22.00;57.00;;;;;;5006431;28;20017;-75
2023/03/09 10:45:51;;;;;;;0.00;0.00;;;21.20;57.80;;;;;;5008976;28;20029;-75
2023/03/09 10:48:35;;;;;;;0.00;0.00;;;20.30;59.80;;;;;;4997713;28;20417;-77
2023/03/09 10:51:03;;;;;;;0.00;0.00;;;20.00;62.00;;;;;;5017245;28;20477;-75
2023/03/09 10:53:37;;;;;;;0.00;0.00;;;19.20;63.50;;;;;;4990904;28;20113;-74
2023/03/09 10:56:16;;;;;;;0.00;0.00;;;18.80;64.90;;;;;;5014399;28;20025;-74
2023/03/09 10:58:43;;;;;;;0.30;0.10;;;18.20;66.80;;;;;;4997001;28;20059;-73
2023/03/09 11:01:16;;;;;;;0.00;0.00;;;18.10;68.10;;;;;;5007181;28;20021;-72
2023/03/09 11:03:43;;;;;;;0.00;0.00;;;20.20;66.80;;;;;;4991608;28;20071;-74
2023/03/09 11:06:30;;;;;;;0.00;0.00;;;23.20;60.10;;;;;;4990990;28;20017;-73
2023/03/09 11:08:57;;;;;;;;;;;24.00;58.60;;;;;;4992783;28;20418;-72
2023/03/09 11:11:25;;;;;;;0.00;0.00;;;23.90;56.00;;;;;;5011226;28;20617;-73
2023/03/09 11:13:53;;;;;;;0.00;0.00;;;22.90;56.80;;;;;;4993259;28;20038;-73
2023/03/09 11:16:26;;;;;;;0.00;0.00;;;21.80;58.20;;;;;;5010971;28;20025;-72
2023/03/09 11:19:07;;;;;;;0.00;0.00;;;21.00;60.10;;;;;;5006671;28;20021;-73
2023/03/09 11:21:34;;;;;;;0.00;0.00;;;20.60;61.30;;;;;;5007004;28;20109;-75
2023/03/09 11:24:02;;;;;;;0.00;0.00;;;20.20;61.40;;;;;;4990764;28;20018;-74
2023/03/09 11:26:44;;;;;;;0.00;0.00;;;19.80;61.30;;;;;;5011526;28;20022;-74
2023/03/09 11:29:38;;;;;;;0.00;0.00;;;19.30;62.00;;;;;;5004998;28;20502;-74
2023/03/09 11:32:04;;;;;;;0.00;0.00;;;18.70;63.00;;;;;;4985288;28;20375;-74
2023/03/09 11:34:39;;;;;;;0.00;0.00;;;18.40;64.40;;;;;;4987554;28;20105;-74
2023/03/09 11:37:28;;;;;;;0.00;0.00;;;18.40;64.90;;;;;;4992367;28;20022;-74
2023/03/09 11:40:10;;;;;;;0.00;0.00;;;18.70;64.50;;;;;;4996846;28;20076;-74
2023/03/09 11:43:06;;;;;;;0.00;0.00;;;18.60;63.60;;;;;;5006473;28;20026;-74
2023/03/09 11:45:34;;;;;;;0.00;0.00;;;18.60;63.20;;;;;;4996794;28;20018;-74
2023/03/09 11:48:07;;;;;;;0.00;0.00;;;19.00;63.70;;;;;;5004149;28;20119;-74
2023/03/09 11:50:51;;;;;;;0.00;0.00;;;19.10;62.10;;;;;;4986730;28;20040;-74
2023/03/09 11:53:23;;;;;;;0.00;0.00;;;19.20;62.20;;;;;;5007315;28;20124;-72
2023/03/09 11:55:57;;;;;;;0.00;0.00;;;19.10;61.00;;;;;;5006995;28;20036;-74
2023/03/09 11:58:37;;;;;;;0.00;0.00;;;18.90;62.50;;;;;;5006115;28;20053;-75
2023/03/09 12:01:24;;;;;;;0.00;0.00;;;18.90;62.30;;;;;;5014630;28;20018;-77
2023/03/09 12:04:00;;;;;;;0.00;0.00;;;18.70;61.00;;;;;;4990499;28;20127;-76
2023/03/09 12:06:31;;;;;;;0.00;0.00;;;18.50;61.30;;;;;;5009455;28;20684;-75
2023/03/09 12:09:02;;;;;;;0.00;0.00;;;18.70;62.20;;;;;;5008147;28;20028;-76
2023/03/09 12:11:42;;;;;;;0.00;0.00;;;18.80;61.00;;;;;;4989976;28;20029;-77
2023/03/09 12:14:26;;;;;;;0.00;0.00;;;18.80;60.80;;;;;;5009520;28;20014;-76
2023/03/09 12:16:55;;;;;;;0.00;0.00;;;18.70;61.70;;;;;;5009581;28;20025;-76
2023/03/09 12:19:27;;;;;;;0.00;0.00;;;18.80;61.00;;;;;;5007152;28;20038;-76
2023/03/09 12:22:04;;;;;;;0.00;0.00;;;18.70;60.90;;;;;;5006100;28;20026;-76
2023/03/09 12:24:45;;;;;;;;;;;19.00;60.40;;;;;;5007548;28;20021;-80
2023/03/09 12:27:19;;;;;;;0.00;0.00;;;19.00;60.20;;;;;;5006162;28;19951;-76
2023/03/09 12:30:07;;;;;;;0.20;0.20;;;18.90;60.60;;;;;;4991861;28;20066;-76
2023/03/09 12:32:41;;;;;;;0.00;0.00;;;18.80;60.80;;;;;;4985691;28;20036;-75
2023/03/09 12:35:40;;;;;;;0.00;0.00;;;18.80;60.90;;;;;;5007043;28;20022;-78
2023/03/09 12:38:16;;;;;;;0.00;0.00;;;18.80;61.60;;;;;;4975240;28;20034;-79
2023/03/09 12:40:42;;;;;;;0.00;0.00;;;18.30;62.00;;;;;;4986028;28;20032;-76
2023/03/09 12:43:15;;;;;;;0.00;0.00;;;18.50;62.90;;;;;;5010229;28;20018;-77
2023/03/09 12:45:43;;;;;;;0.00;0.00;;;18.40;62.40;;;;;;5004080;28;20018;-77
2023/03/09 12:48:30;;;;;;;0.00;0.00;;;18.50;62.60;;;;;;5007588;28;20028;-77
2023/03/09 12:51:26;;;;;;;0.00;0.00;;;18.50;63.90;;;;;;4997242;28;20113;-77
2023/03/09 12:54:19;;;;;;;0.00;0.00;;;18.50;62.50;;;;;;4981719;28;20573;-76
2023/03/09 12:56:45;;;;;;;0.00;0.00;;;18.50;61.60;;;;;;4991156;28;20034;-77
2023/03/09 12:59:20;;;;;;;0.00;0.00;;;18.50;61.60;;;;;;5009575;28;20026;-77
2023/03/09 13:01:46;;;;;;;0.00;0.00;;;18.70;62.30;;;;;;4986759;28;20030;-76
2023/03/09 13:04:14;;;;;;;0.00;0.00;;;19.00;61.60;;;;;;4991819;28;20556;-77
2023/03/09 13:06:51;;;;;;;0.00;0.00;;;18.50;61.30;;;;;;4985750;28;20022;-77
2023/03/09 13:09:52;;;;;;;0.00;0.00;;;18.30;62.40;;;;;;5004774;28;20467;-76
2023/03/09 13:12:35;;;;;;;0.00;0.00;;;18.00;63.30;;;;;;4989330;28;20124;-78
2023/03/09 13:15:19;;;;;;;0.00;0.00;;;17.80;63.70;;;;;;4989137;28;20105;-77
2023/03/09 13:18:04;;;;;;;0.00;0.00;;;17.70;64.50;;;;;;4990386;28;20022;-78